»·PEaware :: EJA827 KSDL-KPSP

EJA827 :: KSDL-KPSP

FLIGHT INFORMATION

Flight Status: Arrived
Operator:
Netjets Aviation
More flights by this operator :: More flights under this callsign
Pilot: Anonymous 31865 (31865)
Aircraft: GULFSTREAM G-1159C GULFSTREAM 4
(GLF4)
More flights by this aircraft type
Origin: KSDL Scottsdale
United States
Destination: KPSP Palm Springs Intl
United States
More flights between these airports :: More routes between these airports
Route: IZZZO7 HRRBR BLH SBONO1
File this flight plan on PilotEdge
Remarks:
Altitude:
(Current/Filed)
30,000ft
Speed:
(Current/Filed)
475kts
Departed: 13-Jan-21 10:44 AM
Arrived: 13-Jan-21 11:26 AM
Distance/Time
Traveled:
230nm/0:42
Distance/Time
To Go:
Arrived

Flight Plot

Page will automatically refresh every two minutes.

Flight plan parsing failed; only flown route is shown


Map Options




Map Legend


Flown Route
Filed Route
Departure Airport
Arrival Airport
Navaid (VOR, NDB)
Fix

Horizontal Profiles

Position Reports

Time Latitude Longitude Heading Altitude Ground
Speed
13-Jan-21 10:30 33.625871 -111.904642 225 1518ft 0kts
13-Jan-21 10:31 33.625871 -111.904642 225 1518ft 0kts
13-Jan-21 10:32 33.625871 -111.904642 225 1518ft 0kts
13-Jan-21 10:33 33.625871 -111.904642 225 1518ft 0kts
13-Jan-21 10:34 33.625871 -111.904642 225 1518ft 0kts
13-Jan-21 10:35 33.625871 -111.904642 225 1518ft 0kts
13-Jan-21 10:36 33.625871 -111.904642 225 1518ft 0kts
13-Jan-21 10:37 33.625871 -111.904642 225 1518ft 0kts
13-Jan-21 10:38 33.625725 -111.905037 260 1518ft 6kts
13-Jan-21 10:39 33.627114 -111.904514 43 1518ft 12kts
13-Jan-21 10:40 33.629405 -111.901874 43 1518ft 9kts
13-Jan-21 10:41 33.630547 -111.900708 4 1518ft 0kts
13-Jan-21 10:42 33.630832 -111.900959 300 1518ft 5kts
13-Jan-21 10:43 33.615456 -111.918919 222 1925ft 181kts
13-Jan-21 10:44 33.636287 -111.963983 344 4239ft 209kts
13-Jan-21 10:45 33.682036 -111.998708 270 6642ft 223kts
13-Jan-21 10:46 33.654759 -112.076000 246 9078ft 286kts
13-Jan-21 10:47 33.618949 -112.168474 247 11754ft 352kts
13-Jan-21 10:48 33.576869 -112.276752 247 15166ft 368kts
13-Jan-21 10:49 33.532634 -112.390243 248 18564ft 388kts
13-Jan-21 10:50 33.485650 -112.510376 248 22419ft 414kts
13-Jan-21 10:51 33.451323 -112.642763 273 26477ft 431kts
13-Jan-21 10:52 33.452684 -112.788654 277 30213ft 440kts
13-Jan-21 10:53 33.478654 -112.938154 285 30343ft 458kts
13-Jan-21 10:54 33.506321 -113.086833 285 30344ft 458kts
13-Jan-21 10:55 33.533796 -113.235522 285 30343ft 458kts
13-Jan-21 10:56 33.561107 -113.384362 285 30343ft 458kts
13-Jan-21 10:57 33.588446 -113.533688 286 30343ft 458kts
13-Jan-21 10:58 33.616210 -113.682760 285 30360ft 457kts
13-Jan-21 10:59 33.643734 -113.831508 285 30370ft 457kts
13-Jan-21 11:00 33.643117 -113.984680 269 30370ft 465kts
13-Jan-21 11:01 33.647382 -114.137734 285 30376ft 458kts
13-Jan-21 11:02 33.673329 -114.286811 285 30318ft 454kts
13-Jan-21 11:03 33.698611 -114.433719 285 28499ft 441kts
13-Jan-21 11:04 33.722899 -114.575848 285 26864ft 431kts
13-Jan-21 11:05 33.746622 -114.715724 284 25783ft 425kts
13-Jan-21 11:06 33.769761 -114.853123 284 23976ft 415kts
13-Jan-21 11:07 33.792238 -114.987532 284 22165ft 407kts
13-Jan-21 11:08 33.814048 -115.118891 284 20346ft 396kts
13-Jan-21 11:09 33.835208 -115.247178 284 18530ft 387kts
13-Jan-21 11:10 33.855756 -115.372586 284 16878ft 379kts
13-Jan-21 11:11 33.875819 -115.495867 284 15324ft 372kts
13-Jan-21 11:12 33.894776 -115.613184 284 13463ft 338kts
13-Jan-21 11:13 33.912451 -115.723070 283 11806ft 329kts
13-Jan-21 11:14 33.909571 -115.834084 267 11213ft 333kts
13-Jan-21 11:15 33.902629 -115.942188 267 11089ft 320kts
13-Jan-21 11:16 33.895356 -116.046738 257 10440ft 298kts
13-Jan-21 11:17 33.829121 -116.099672 200 8862ft 296kts
13-Jan-21 11:18 33.755369 -116.136598 212 7428ft 285kts
13-Jan-21 11:19 33.715682 -116.215871 241 6024ft 274kts
13-Jan-21 11:20 33.682408 -116.294115 252 4196ft 245kts
13-Jan-21 11:21 33.712552 -116.354981 311 3959ft 212kts
13-Jan-21 11:22 33.734711 -116.413542 292 2978ft 201kts
13-Jan-21 11:23 33.771048 -116.454990 317 1792ft 154kts
13-Jan-21 11:24 33.804048 -116.485025 325 966ft 143kts
13-Jan-21 11:25 33.830690 -116.508559 323 485ft 36kts
13-Jan-21 11:26 33.833027 -116.511859 222 485ft 3kts
13-Jan-21 11:27 33.832687 -116.512143 204 485ft 10kts
13-Jan-21 11:28 33.829180 -116.509362 143 485ft 16kts
13-Jan-21 11:29 33.826024 -116.506895 209 485ft 9kts
13-Jan-21 11:30 33.825696 -116.508193 271 485ft 0kts

Navigation Log

Ident Type
Flight plan parsing failed, navigation log unavailable